Barona Rancheria, California
Current Conditions -  °F | °C
As of 5:53 AM on Friday 19 Dec 2014 (Local Time) from KPSP Reporting Station
Clear Clear  
Wind Chill: 46°   Ceiling: Unl
Heat Index: 49°   Visibility: 10mi
Dew Point: 40°   Wind: 7mph
Humidity: 71%   Direction: 330°NNW
Pressure: 30.24"   Gusts: NA
Location:  33.8563°N, 116.571°W
Report Text: KPSP 191353Z 33006KT 10SM CLR 09/04 A3024 RMK AO2 SLP241 T00940044
Loading
Personal Weather Stations






























Interactive Weather Map New forecast layout! Learn more

10-Day Weather Forecast

Advertisements
Track Severe Weather on mobile